Time;durP1;ratioP1;P1;durP2;ratioP2;P2;SDS_P1;SDS_P2;PMS_P1;PMS_P2;Temp;Humidity;BMP_temperature;BMP_pressure;BME280_temperature;BME280_humidity;BME280_pressure;Samples;Min_cycle;Max_cycle;Signal;HPM_P1;HPM_P2
2023/08/17 00:02:53;;;;;;;16.80;12.60;;;;;;;23.85;63.84;98840.63;435597;1250;99221;-42
2023/08/17 00:23:06;;;;;;;14.30;12.10;;;;;;;23.54;64.44;98843.54;435183;1250;107469;-42
2023/08/17 00:43:16;;;;;;;16.00;13.70;;;;;;;23.55;65.09;98831.70;435386;1253;107662;-42
2023/08/17 00:53:22;;;;;;;19.90;14.50;;;;;;;23.47;65.36;98840.38;435302;1250;99229;-42
2023/08/17 01:13:33;;;;;;;21.50;14.50;;;;;;;23.26;66.31;98843.21;435328;1251;107617;-41
2023/08/17 01:23:39;;;;;;;22.10;15.50;;;;;;;23.21;66.67;98842.52;435617;1253;98331;-41
2023/08/17 01:33:44;;;;;;;18.10;14.90;;;;;;;23.23;66.92;98848.78;435254;1253;107826;-41
2023/08/17 01:43:49;;;;;;;18.40;16.20;;;;;;;23.09;67.49;98866.60;435479;1253;98254;-42
2023/08/17 01:53:56;;;;;;;23.00;16.50;;;;;;;22.89;68.06;98878.61;436197;1249;112052;-41
2023/08/17 02:04:04;;;;;;;25.70;17.40;;;;;;;22.80;68.52;98888.81;435528;1253;107818;-42
2023/08/17 02:14:11;;;;;;;16.40;14.70;;;;;;;22.86;68.61;98884.65;435388;1251;99022;-42
2023/08/17 02:34:24;;;;;;;21.80;17.80;;;;;;;22.85;68.77;98884.07;435298;1250;99216;-43
2023/08/17 02:44:31;;;;;;;22.80;18.90;;;;;;;22.80;68.95;98896.95;435438;1253;111895;-42
2023/08/17 02:54:39;;;;;;;22.90;17.60;;;;;;;22.86;69.16;98902.77;435286;1253;106721;-43
2023/08/17 03:04:45;;;;;;;20.60;17.90;;;;;;;22.84;69.10;98902.97;435347;1253;97980;-42
2023/08/17 03:14:51;;;;;;;19.90;17.60;;;;;;;22.83;69.27;98910.06;435432;1253;108368;-41
2023/08/17 03:24:57;;;;;;;24.50;21.00;;;;;;;22.73;69.46;98918.65;435481;1251;99103;-40
2023/08/17 03:35:04;;;;;;;20.80;18.70;;;;;;;22.48;69.81;98925.27;435384;1253;111431;-43
2023/08/17 03:45:10;;;;;;;20.60;17.70;;;;;;;22.19;70.18;98927.45;435363;1253;108723;-43
2023/08/17 03:55:17;;;;;;;24.00;19.20;;;;;;;22.02;70.78;98931.96;435206;1253;99496;-43
2023/08/17 04:05:24;;;;;;;26.20;19.50;;;;;;;21.98;71.44;98942.23;435392;1253;108589;-42
2023/08/17 04:15:31;;;;;;;21.20;18.80;;;;;;;21.97;71.81;98945.93;435335;1253;99215;-42
2023/08/17 04:25:38;;;;;;;21.70;19.60;;;;;;;21.93;72.35;98950.45;435344;1249;112198;-43
2023/08/17 04:35:47;;;;;;;21.10;19.10;;;;;;;22.04;72.72;98943.99;435174;1250;108147;-41
2023/08/17 04:45:54;;;;;;;19.00;16.60;;;;;;;22.16;73.02;98953.70;435513;1251;97977;-43
2023/08/17 04:56:01;;;;;;;16.60;14.90;;;;;;;22.39;73.31;98955.09;435407;1250;108215;-44
2023/08/17 05:06:08;;;;;;;20.20;15.00;;;;;;;22.39;73.36;98955.89;435367;1253;99347;-42
2023/08/17 05:26:20;;;;;;;15.30;13.60;;;;;;;22.45;74.02;98973.51;435307;1254;107899;-43
2023/08/17 05:36:27;;;;;;;14.80;12.60;;;;;;;22.49;74.09;98971.13;435282;1253;99246;-43
2023/08/17 05:46:34;;;;;;;17.40;13.90;;;;;;;22.83;74.26;98977.41;435202;1253;107891;-43
2023/08/17 05:56:46;;;;;;;28.40;14.50;;;;;;;23.28;74.11;98984.30;435248;1253;98122;-43
2023/08/17 06:06:53;;;;;;;17.10;14.90;;;;;;;23.63;74.05;99000.90;435369;1251;111634;-44
2023/08/17 06:17:00;;;;;;;22.70;13.40;;;;;;;23.93;73.35;99000.10;435285;1253;107822;-41
2023/08/17 07:07:29;;;;;;;16.80;15.10;;;;;;;25.60;71.06;98995.40;435273;1254;107265;-42
2023/08/17 07:17:36;;;;;;;18.30;14.60;;;;;;;25.62;70.67;98994.73;435607;1254;98591;-42
2023/08/17 07:27:43;;;;;;;17.50;14.00;;;;;;;25.66;70.15;99006.49;435442;1253;108223;-43
2023/08/17 07:37:50;;;;;;;20.40;14.30;;;;;;;25.69;70.03;99005.25;435323;1253;98904;-40
2023/08/17 07:48:16;;;;;;;22.30;16.90;;;;;;;25.69;69.83;99019.62;435340;1263;110965;-42
2023/08/17 07:58:23;;;;;;;23.90;16.70;;;;;;;25.60;69.66;99024.71;435307;1251;108344;-41
2023/08/17 08:08:30;;;;;;;23.80;15.00;;;;;;;25.62;69.72;99022.70;435425;1249;99253;-43
2023/08/17 08:18:36;;;;;;;20.50;15.20;;;;;;;25.70;69.60;99016.18;435255;1263;108666;-41
2023/08/17 08:28:42;;;;;;;23.70;16.20;;;;;;;26.12;69.65;99010.73;435400;1254;99710;-41
2023/08/17 08:48:57;;;;;;;23.60;17.60;;;;;;;27.27;69.49;99010.39;435316;1251;108334;-40
2023/08/17 08:59:04;;;;;;;19.70;16.20;;;;;;;27.90;67.62;99007.25;435300;1254;99221;-40
2023/08/17 09:09:12;;;;;;;25.90;17.90;;;;;;;27.88;66.95;99010.30;435280;1251;107400;-42
2023/08/17 09:19:21;;;;;;;24.60;17.80;;;;;;;27.89;66.70;99015.45;435399;1249;99225;-42
2023/08/17 09:39:36;;;;;;;24.20;17.80;;;;;;;27.99;66.12;99009.29;435433;1251;108547;-41
2023/08/17 09:49:43;;;;;;;26.80;18.20;;;;;;;28.40;65.43;98993.98;435383;1261;99322;-43
2023/08/17 10:09:59;;;;;;;21.20;17.00;;;;;;;28.93;64.73;98976.46;435394;1253;99204;-45
2023/08/17 10:20:06;;;;;;;18.90;15.60;;;;;;;29.03;63.24;98969.71;435486;1253;111973;-42
2023/08/17 10:40:16;;;;;;;13.50;12.00;;;;;;;29.84;61.14;98961.47;435446;1253;99237;-43
2023/08/17 11:00:32;;;;;;;15.30;12.40;;;;;;;30.41;57.75;98959.11;435402;1254;97914;-43
2023/08/17 11:20:48;;;;;;;19.60;11.50;;;;;;;30.71;56.89;98971.14;435440;1254;107882;-43
2023/08/17 11:30:59;;;;;;;20.90;10.30;;;;;;;30.46;56.11;98970.69;435434;1254;98827;-41
2023/08/17 11:41:06;;;;;;;10.70;9.40;;;;;;;30.56;55.20;98960.95;435376;1253;108289;-41
2023/08/17 11:51:13;;;;;;;10.50;9.50;;;;;;;30.74;54.12;98951.34;435584;1250;99301;-43
2023/08/17 12:01:19;;;;;;;14.90;9.50;;;;;;;30.73;53.55;98956.98;435519;1251;104261;-43
2023/08/17 12:11:24;;;;;;;12.20;7.60;;;;;;;30.77;52.44;98952.27;435556;1251;108129;-41
2023/08/17 12:41:37;;;;;;;10.40;8.60;;;;;;;29.54;51.13;98934.09;435473;1267;99243;-40
2023/08/17 13:11:56;;;;;;;12.10;7.40;;;;;;;29.46;51.22;98929.41;435569;1251;98911;-42
2023/08/17 13:22:02;;;;;;;8.00;7.20;;;;;;;29.47;50.82;98935.54;435417;1250;108531;-43
2023/08/17 13:32:09;;;;;;;17.40;8.00;;;;;;;29.46;51.31;98953.63;435579;1253;97973;-42
2023/08/17 13:42:16;;;;;;;16.40;8.10;;;;;;;29.32;51.22;98944.05;435439;1253;111678;-42
2023/08/17 13:52:22;;;;;;;10.60;9.10;;;;;;;29.21;51.20;98942.39;435675;1253;108010;-42
2023/08/17 14:02:30;;;;;;;15.60;9.20;;;;;;;28.33;51.93;98963.63;435612;1253;99218;-41
2023/08/17 14:12:36;;;;;;;20.20;10.00;;;;;;;27.53;53.35;98978.73;435479;1253;108497;-41
2023/08/17 14:22:43;;;;;;;19.40;9.20;;;;;;;26.82;54.10;99001.40;435717;1250;99211;-44
2023/08/17 15:03:08;;;;;;;7.30;6.60;;;;;;;25.06;56.23;99003.06;435699;1253;107095;-42
2023/08/17 15:13:13;;;;;;;5.90;5.30;;;;;;;24.64;56.72;98973.75;435556;1253;98846;-43
2023/08/17 15:23:19;;;;;;;10.50;4.60;;;;;;;24.42;57.54;98968.48;435562;1251;111617;-42
2023/08/17 15:33:24;;;;;;;7.70;5.00;;;;;;;24.30;57.77;98971.27;435509;1253;108818;-43
2023/08/17 15:43:30;;;;;;;6.20;4.40;;;;;;;24.23;57.94;98966.96;435671;1250;99209;-42
2023/08/17 16:13:48;;;;;;;17.80;6.20;;;;;;;23.96;58.57;98961.61;435590;1253;110491;-42
2023/08/17 16:23:54;;;;;;;;;;;;;;;23.88;58.71;98958.04;435484;1253;106947;-43
2023/08/17 16:44:06;;;;;;;11.50;7.00;;;;;;;23.71;59.97;98940.91;435476;1251;109193;-42
2023/08/17 16:54:13;;;;;;;14.40;8.60;;;;;;;23.43;60.55;98938.20;435612;1253;99221;-42
2023/08/17 17:04:20;;;;;;;13.40;7.20;;;;;;;23.23;61.21;98943.96;435643;1253;112279;-42
2023/08/17 17:14:28;;;;;;;9.10;7.10;;;;;;;23.13;61.88;98946.94;435557;1250;108781;-42
2023/08/17 17:24:34;;;;;;;9.90;7.60;;;;;;;22.93;62.46;98949.48;435507;1251;98709;-43
2023/08/17 17:34:42;;;;;;;11.00;8.20;;;;;;;22.65;63.25;98927.84;435598;1250;108501;-41
2023/08/17 17:44:48;;;;;;;10.40;7.10;;;;;;;22.49;64.00;98924.76;435514;1253;99237;-42
2023/08/17 17:54:56;;;;;;;13.00;7.50;;;;;;;22.43;64.30;98936.91;435355;1250;111925;-41
2023/08/17 18:05:02;;;;;;;18.30;9.00;;;;;;;22.30;64.92;98929.29;435438;1251;107345;-42
2023/08/17 18:15:10;;;;;;;13.20;8.10;;;;;;;22.09;65.48;98930.98;435689;1250;98354;-43
2023/08/17 18:25:17;;;;;;;12.10;8.20;;;;;;;21.83;65.91;98930.34;435497;1253;108557;-43
2023/08/17 18:35:23;;;;;;;16.30;11.50;;;;;;;21.71;66.47;98954.32;436246;1250;99247;-43
2023/08/17 18:45:29;;;;;;;22.30;13.20;;;;;;;21.84;67.30;98961.23;437038;1250;110781;-43
2023/08/17 18:55:37;;;;;;;44.10;27.40;;;;;;;21.88;67.68;98948.72;436856;1253;108309;-41
2023/08/17 19:15:50;;;;;;;19.70;11.60;;;;;;;21.39;69.11;98954.73;436241;1252;108624;-45
2023/08/17 19:46:10;;;;;;;16.20;13.10;;;;;;;21.06;71.47;98869.21;436311;1253;109371;-43
2023/08/17 19:56:17;;;;;;;18.40;13.30;;;;;;;20.87;71.93;98872.07;436482;1252;99472;-42
2023/08/17 20:16:29;;;;;;;15.40;11.10;;;;;;;20.70;72.96;98892.24;436413;1252;99218;-43
2023/08/17 20:26:35;;;;;;;15.20;11.00;;;;;;;20.72;73.73;98891.67;436258;1253;111252;-42
2023/08/17 20:36:43;;;;;;;13.40;11.10;;;;;;;20.72;74.18;98882.53;436361;1252;107782;-42
2023/08/17 20:46:49;;;;;;;17.40;13.20;;;;;;;20.71;74.78;98886.09;436389;1253;98854;-42
2023/08/17 20:56:56;;;;;;;19.60;14.80;;;;;;;20.69;74.91;98904.95;436215;1253;108177;-42
2023/08/17 21:07:05;;;;;;;17.20;13.80;;;;;;;20.60;75.44;98915.60;436282;1253;98810;-42
2023/08/17 21:17:12;;;;;;;16.00;13.30;;;;;;;20.73;76.29;98929.98;436370;1248;110349;-43
2023/08/17 21:27:19;;;;;;;19.30;10.60;;;;;;;20.73;76.89;98978.24;436322;1252;107874;-41
2023/08/17 21:37:30;;;;;;;14.60;10.10;;;;;;;20.77;77.63;98995.12;436223;1253;98846;-42
2023/08/17 21:57:44;;;;;;;11.20;9.20;;;;;;;20.75;77.08;98962.63;436216;1252;99317;-42
2023/08/17 22:07:51;;;;;;;12.60;10.20;;;;;;;20.67;77.03;98965.90;436281;1248;113363;-42
2023/08/17 22:28:03;;;;;;;15.20;10.40;;;;;;;20.41;77.23;98959.92;436349;1253;99214;-42
2023/08/17 22:38:10;;;;;;;12.60;10.30;;;;;;;20.46;77.83;98956.59;436350;1253;108206;-41
2023/08/17 22:48:18;;;;;;;12.90;10.10;;;;;;;20.50;78.02;98950.46;436241;1253;99336;-43
2023/08/17 22:58:25;;;;;;;16.00;13.40;;;;;;;20.50;78.27;98938.27;436299;1253;112214;-42
2023/08/17 23:08:32;;;;;;;16.50;12.50;;;;;;;20.39;78.35;98929.91;436261;1253;107486;-41
2023/08/17 23:18:37;;;;;;;14.50;11.40;;;;;;;20.32;78.54;98928.68;436376;1253;99253;-42
2023/08/17 23:28:44;;;;;;;14.60;11.00;;;;;;;20.26;78.86;98921.11;436165;1263;107301;-42
2023/08/17 23:38:51;;;;;;;12.10;10.90;;;;;;;20.25;79.10;98915.70;436252;1253;99307;-41
2023/08/17 23:48:56;;;;;;;17.90;13.90;;;;;;;20.22;79.28;98901.23;436323;1252;113001;-43
2023/08/17 23:59:04;;;;;;;14.80;12.40;;;;;;;20.21;79.58;98898.67;436242;1253;107947;-42
